Terminal Aerodrome Forecast
Issued by NWS St Louis, MO

Home | Current Version | Previous Version | Text Only | Print | Product List | Glossary On
Versions: 1 2 3 4 5 6 7 8 9 10 11 12 13 14 15 16 17 18
000
FTUS43 KLSX 240500
TAFCOU
TAF
KCOU 240520Z 2406/2506 13013G20KT P6SM BKN150 WS016/17045KT
     FM241600 16014G24KT 6SM -SHRA VCTS BKN050CB
     FM242100 18012KT 5SM -TSRA OVC035CB
     FM250000 29013KT P6SM OVC020=

USA.gov is the U.S. government's official web portal to all federal, state and local government web resources and services.